Tiempo atmosférico en la estación meteorológica de Tijarafe, Santa Cruz de Tenerife (733 m.)



Fecha
DESCASC
Temp. máxima en grados centígrados (hora)
DESCASC
Temp. mínima en grados centígrados (hora)
DESCASC
Temp. media en grados centígrados
DESCASC
Racha de viento máxima en m/sg (hora)
DESCASC
Velocidad máxima media en intervalos de 10 minutos(hora)
DESCASC
Precipitaciones diarias en mm
DESCASC
Precipitaciones de 00:00 a 06:00 en mm
DESCASC
Precipitaciones de 06:00 a 12:00 en mm
DESCASC
Precipitaciones de 12:00 a 18:00 en mm
DESCASC
Precipitaciones de 18:00 a 24:00 en mm
DESCASC
19-09-2019 22.9 (16:50) 15.1 (07:20) 19 5.83 (13:40) 3.89 (13:40) 0 0 0 0 0
18-09-2019 22.9 (16:10) 15 (06:30) 18.9 8.06 (14:10) 5.83 (14:10) 0 0 0 0 0
17-09-2019 23.8 (17:10) 16.8 (00:00) 20.3 5.28 (15:30) 3.89 (22:40) 0 0 0 0 0
16-09-2019 27.9 (12:50) 17.9 (00:00) 22.9 12.5 (06:00) 5.56 (05:00) 0 0 0 0 0
15-09-2019 24.7 (14:30) 15.8 (00:00) 20.3 5 (14:40) 3.06 (21:30) 0 0 0 0 0
14-09-2019 23 (15:40) 15.1 (00:00) 19.1 6.39 (13:40) 3.61 (18:20) 0 0 0 0 0
13-09-2019 23.5 (15:30) 15.7 (00:00) 19.6 5.83 (15:10) 3.61 (18:40) 0 0 0 0 0
12-09-2019 24.7 (15:40) 15.3 (00:00) 20 10.56 (13:10) 7.78 (13:10) 0 0 0 0 0
11-09-2019 23.9 (15:10) 16.2 (00:00) 20.1 7.5 (15:20) 4.72 (23:50) 0 0 0 0 0
10-09-2019 26.5 (17:00) 18.2 (22:00) 22.4 5.56 (22:20) 2.78 (03:30) 0 0 0 0 0
09-09-2019 26.4 (14:40) 16.2 (04:10) 21.3 5.83 (15:40) 3.89 (06:40) 0 0 0 0 0
08-09-2019 23.1 (15:50) 15 (00:00) 19.1 6.94 (18:40) 3.33 (19:50) 0 0 0 0 0
07-09-2019 22 (18:10) 16.1 (00:00) 19.1 9.72 (15:20) 6.39 (15:20) 0 0 0 0 0
06-09-2019 23.2 (13:20) 15.4 (00:00) 19.3 5.83 (12:50) 2.78 (12:50) 0 0 0 0 0
05-09-2019 23.1 (14:40) 14.9 (00:00) 19 5.83 (15:10) 2.78 (14:00) 0 0 0 0 0
04-09-2019 20.7 (11:50) 15.1 (00:00) 17.9 5 (13:40) 2.22 (12:40) 0 0 0 0 0
03-09-2019 21.6 (17:00) 14.6 (00:00) 18.1 6.39 (13:50) 2.5 (14:00) 0 0 0 0 0
02-09-2019 23.2 (16:40) 14.8 (00:00) 19 6.11 (13:10) 3.33 (13:20) 0 0 0 0 0
01-09-2019 25.1 (00:10) 16.8 (00:00) 20.9 11.67 (16:50) 7.78 (12:20) 0 0 0 0 0
31-08-2019 28 (14:40) 19.7 (00:00) 23.9 7.5 (19:10) 4.44 (15:40) 0 0 0 0 0
30-08-2019 29.7 (16:20) 17.8 (00:00) 23.8 9.72 (10:40) 7.5 (10:40) 0 0 0 0 0
29-08-2019 27.8 (17:40) 17.3 (00:00) 22.5 5.56 (12:20) 3.33 (09:30) 0 0 0 0 0
28-08-2019 24.5 (16:00) 18 (00:00) 21.3 7.22 (12:50) 4.17 (14:40) 0 0 0 0 0
27-08-2019 27.4 (17:40) 19.3 (00:00) 23.3 5 (19:30) 3.89 (23:40) 0 0 0 0 0
26-08-2019 31.4 (13:20) 21.1 (00:00) 26.3 7.5 (14:10) 5 (14:10) 0 0 0 0 0
25-08-2019 36.3 (15:30) 25.2 (00:00) 30.8 8.61 (13:20) 3.61 (03:40) 0 0 0 0 0
24-08-2019 35.4 (13:50) 23.4 (00:00) 29.4 8.61 (09:00) 4.17 (06:00) 0 0 0 0 0
23-08-2019 31.2 (16:50) 19.7 (00:00) 25.5 7.78 (08:40) 5 (07:20) 0 0 0 0 0

Gráficas

Temp. máximas Temp. mínimas Temp. medias Precipitaciones Rachas de viento máximas Velocidades máximas media en intervalos de 10 minutos

Datos horarios

Fecha y hora oficial Temperatura (ºC) Velocidad del viento (km/h) Dirección del viento Racha (km/h) Dirección de racha Precipitación (mm) Presión (hPa) Tendencia (hPa) Humedad (%)
2019-09-21 23:00:00 18.3 0 Calma 3 Norte 0 -- -- 98
2019-09-21 22:00:00 18.3 0 Calma 5 Noroeste 0 -- -- 98
2019-09-21 21:00:00 18.2 9 Norte 16 Noroeste 0 -- -- 98
2019-09-21 20:00:00 18.2 11 Norte 19 Norte 0 -- -- 97
2019-09-21 19:00:00 18.7 11 Norte 18 Norte 0 -- -- 95
2019-09-21 18:00:00 18.5 12 Norte 21 Norte 0 -- -- 95
2019-09-21 17:00:00 19.5 11 Norte 19 Norte 0 -- -- 89
2019-09-21 16:00:00 21.1 12 Norte 19 Norte 0 -- -- 82
2019-09-21 15:00:00 20.6 6 Noroeste 17 Noroeste 0 -- -- 85
2019-09-21 14:00:00 20.5 9 Norte 15 Norte 0 -- -- 82
2019-09-21 13:00:00 19.9 4 Norte 12 Norte 0 -- -- 83
2019-09-21 12:00:00 19.2 6 Norte 11 Norte 0 -- -- 86
2019-09-21 11:00:00 19.5 3 Norte 7 Noroeste 0 -- -- 86
2019-09-21 10:00:00 17.5 2 Nordeste 5 Noroeste 0 -- -- 88
2019-09-21 09:00:00 15.9 0 Calma 3 Norte 0 -- -- 94
2019-09-21 08:00:00 15.5 0 Calma 4 Sudeste 0 -- -- 92
2019-09-21 07:00:00 15.7 0 Calma 9 Sudeste 0 -- -- 92
2019-09-21 06:00:00 16 5 Sudeste 11 Sudeste 0 -- -- 92
2019-09-21 05:00:00 16 0 Calma 5 Sudeste 0 -- -- 95
2019-09-21 04:00:00 16.1 0 Calma 4 Sur 0 -- -- 95
2019-09-21 03:00:00 16.4 0 Calma 4 Norte 0 -- -- 95
2019-09-21 02:00:00 16.4 0 Calma 6 Nordeste 0 -- -- 92
2019-09-21 01:00:00 16.6 7 Nordeste 14 Nordeste 0 -- -- 94
2019-09-21 00:00:00 16.8 5 Norte 11 Norte 0 -- -- 93
2019-09-20 23:00:00 17.6 8 Norte 13 Noroeste 0 -- -- 95
2019-09-20 22:00:00 17.7 4 Sur 11 Sur 0 -- -- 94
2019-09-20 21:00:00 18.4 4 Este 12 Sudeste 0 -- -- 92
2019-09-20 20:00:00 20 5 Nordeste 13 Nordeste 0 -- -- 84
2019-09-20 19:00:00 20.1 3 Este 13 Sudeste 0 -- -- 83
2019-09-20 18:00:00 22.1 8 Noroeste 15 Noroeste 0 -- -- 76
2019-09-20 17:00:00 20.8 8 Noroeste 19 Noroeste 0 -- -- 81
2019-09-20 16:00:00 21 7 Noroeste 15 Noroeste 0 -- -- 81
2019-09-20 15:00:00 19.9 6 Norte 15 Norte 0 -- -- 83
2019-09-20 14:00:00 19.9 6 Noroeste 17 Norte 0 -- -- 82
2019-09-20 13:00:00 20.5 4 Norte 10 Oeste 0 -- -- 81
2019-09-20 12:00:00 20.9 3 Noroeste 8 Noroeste 0 -- -- 79
2019-09-20 11:00:00 19.5 3 Noroeste 8 Sudeste 0 -- -- 85
2019-09-20 10:00:00 17.7 0 Calma 12 Este 0 -- -- 87
2019-09-20 09:00:00 16 0 Calma 6 Sudeste 0 -- -- 95
2019-09-20 08:00:00 15.4 0 Calma 7 Nordeste 0 -- -- 95
2019-09-20 07:00:00 15.6 3 Norte 9 Noroeste 0 -- -- 95
2019-09-20 06:00:00 15.6 4 Norte 11 Nordeste 0 -- -- 96
2019-09-20 05:00:00 16.1 3 Este 12 Sudeste 0 -- -- 96
2019-09-20 04:00:00 16.1 5 Nordeste 14 Nordeste 0 -- -- 94
2019-09-20 03:00:00 17 4 Sudeste 16 Norte 0 -- -- 87
2019-09-20 02:00:00 17.3 6 Nordeste 13 Nordeste 0 -- -- 96
2019-09-20 01:00:00 17.5 2 Nordeste 5 Nordeste 0 -- -- 94
2019-09-20 00:00:00 17.5 4 Noroeste 8 Sudoeste 0 -- -- 94
2019-09-19 23:00:00 17.7 5 Norte 10 Noroeste 0 -- -- 91
2019-09-19 22:00:00 17.9 2 Sudoeste 6 Nordeste 0 -- -- 91
2019-09-19 21:00:00 18 0 Calma 8 Norte 0 -- -- 91
2019-09-19 20:00:00 18 3 Oeste 11 Noroeste 0 -- -- 91
2019-09-19 19:00:00 18.3 6 Norte 19 Noroeste 0 -- -- 90
2019-09-19 18:00:00 20.7 9 Noroeste 18 Norte 0 -- -- 77
2019-09-19 17:00:00 22.8 5 Norte 18 Noroeste 0 -- -- 70
2019-09-19 16:00:00 22 4 Noroeste 16 Noroeste 0 -- -- 74
2019-09-19 15:00:00 20.2 5 Norte 20 Noroeste 0 -- -- 83
2019-09-19 14:00:00 18.6 13 Norte 21 Norte 0 -- -- 88
2019-09-19 13:00:00 19.1 12 Norte 20 Noroeste 0 -- -- 82
2019-09-19 12:00:00 20.2 4 Norte 18 Sur 0 -- -- 76
2019-09-19 11:00:00 19.5 5 Noroeste 18 Oeste 0 -- -- 78
2019-09-19 10:00:00 17.6 5 Norte 12 Norte 0 -- -- 84
2019-09-19 09:00:00 15.6 6 Nordeste 14 Norte 0 -- -- 86
2019-09-19 08:00:00 15.1 8 Norte 10 Nordeste 0 -- -- 92
2019-09-19 07:00:00 15.4 2 Nordeste 6 Sudeste 0 -- -- 91
2019-09-19 06:00:00 15.5 2 Noroeste 12 Noroeste 0 -- -- 93
2019-09-19 05:00:00 16.1 6 Norte 14 Noroeste 0 -- -- 92
2019-09-19 04:00:00 16.8 3 Nordeste 9 Sur 0 -- -- 94
2019-09-19 03:00:00 16.7 8 Norte 14 Nordeste 0 -- -- 95
2019-09-19 02:00:00 16.7 4 Nordeste 10 Norte 0 -- -- 91
2019-09-19 01:00:00 16.9 3 Nordeste 11 Este 0 -- -- 93
2019-09-19 00:00:00 17.1 3 Sudeste 8 Sudoeste 0 -- -- 92
2019-09-18 23:00:00 17.5 3 Oeste 15 Norte 0 -- -- 90
2019-09-18 22:00:00 17.4 9 Norte 19 Norte 0 -- -- 91
2019-09-18 21:00:00 17.3 10 Norte 15 Norte 0 -- -- 92
2019-09-18 20:00:00 19 0 Calma 12 Noroeste 0 -- -- 80
2019-09-18 19:00:00 18.9 7 Sur 23 Sudoeste 0 -- -- 82
2019-09-18 18:00:00 20.1 6 Sudeste 19 Sudoeste 0 -- -- 77
2019-09-18 17:00:00 21.8 5 Sur 15 Oeste 0 -- -- 70
2019-09-18 16:00:00 22.2 5 Noroeste 29 Norte 0 -- -- 70
2019-09-18 15:00:00 20 16 Norte 29 Norte 0 -- -- 77
2019-09-18 14:00:00 19.7 18 Norte 28 Norte 0 -- -- 78
2019-09-18 13:00:00 19.5 6 Norte 19 Este 0 -- -- 81
2019-09-18 12:00:00 19.8 6 Noroeste 15 Noroeste 0 -- -- 77
2019-09-18 11:00:00 19.4 4 Nordeste 14 Norte 0 -- -- 78
2019-09-18 10:00:00 17.3 4 Norte 12 Noroeste 0 -- -- 84
2019-09-18 09:00:00 15.7 4 Nordeste 20 Nordeste 0 -- -- 90
2019-09-18 08:00:00 15.1 16 Nordeste 25 Nordeste 0 -- -- 93
2019-09-18 07:00:00 15.1 14 Norte 21 Nordeste 0 -- -- 94
2019-09-18 06:00:00 15.1 9 Norte 14 Nordeste 0 -- -- 96
2019-09-18 05:00:00 15.5 2 Sudeste 11 Sudeste 0 -- -- 95
2019-09-18 04:00:00 15.6 3 Nordeste 14 Norte 0 -- -- 95
2019-09-18 03:00:00 16 4 Norte 12 Noroeste 0 -- -- 94
2019-09-18 02:00:00 16.2 0 Calma 12 Nordeste 0 -- -- 93
2019-09-18 01:00:00 16.6 11 Nordeste 15 Nordeste 0 -- -- 90
2019-09-18 00:00:00 17 11 Norte 16 Nordeste 0 -- -- 94
2019-09-17 23:00:00 16.8 10 Nordeste 17 Nordeste 0 -- -- 93
2019-09-17 22:00:00 17 7 Norte 10 Norte 0 -- -- 93
2019-09-17 21:00:00 17.5 4 Sur 11 Sur 0 -- -- 91
2019-09-17 20:00:00 19.3 3 Sur 12 Sur 0 -- -- 81
2019-09-15 17:00:00 24.4 5 Norte 14 Oeste 0 -- -- 64
2019-09-15 16:00:00 24.4 6 Norte 16 Oeste 0 -- -- 65
2019-09-15 15:00:00 23.9 5 Norte 18 Sur 0 -- -- 60
2019-09-15 14:00:00 24.5 7 Noroeste 15 Noroeste 0 -- -- 60
2019-09-15 13:00:00 23.5 5 Noroeste 11 Norte 0 -- -- 57
2019-09-15 12:00:00 22.5 3 Noroeste 12 Oeste 0 -- -- 64
2019-09-15 11:00:00 21.1 4 Este 10 Sudeste 0 -- -- 66
2019-09-15 10:00:00 19.5 4 Sur 12 Este 0 -- -- 66
2019-09-15 09:00:00 18 0 Calma 16 Este 0 -- -- 51
2019-09-15 08:00:00 17.5 2 Nordeste 10 Norte 0 -- -- 57
2019-09-15 07:00:00 16.6 8 Nordeste 10 Norte 0 -- -- 75
2019-09-15 06:00:00 15.8 4 Norte 6 Nordeste 0 -- -- 79
2019-09-15 05:00:00 16 0 Calma 5 Nordeste 0 -- -- 80
2019-09-15 04:00:00 16.4 0 Calma 5 Norte 0 -- -- 75
2019-09-15 03:00:00 17 4 Norte 6 Norte 0 -- -- 70
2019-09-15 02:00:00 17.3 0 Calma 11 Norte 0 -- -- 78
2019-09-15 01:00:00 17.7 5 Noroeste 7 Noroeste 0 -- -- 72
2019-09-15 00:00:00 17.2 0 Calma 6 Norte 0 -- -- 77
2019-09-14 23:00:00 17.6 6 Norte 8 Norte 0 -- -- 74
2019-09-14 22:00:00 17.9 7 Nordeste 12 Sudeste 0 -- -- 73
2019-09-14 21:00:00 18.1 3 Este 8 Sudoeste 0 -- -- 85
2019-09-14 20:00:00 20.4 3 Norte 17 Norte 0 -- -- 70
2019-09-14 19:00:00 21.2 11 Norte 23 Noroeste 0 -- -- 70
2019-09-14 18:00:00 21.7 11 Noroeste 19 Norte 0 -- -- 71
2019-09-14 17:00:00 22.2 8 Norte 19 Noroeste 0 -- -- 69
2019-09-14 16:00:00 22.9 6 Norte 22 Oeste 0 -- -- 67
2019-09-14 15:00:00 22.4 6 Noroeste 19 Noroeste 0 -- -- 64
2019-09-14 14:00:00 22.1 6 Norte 23 Nordeste 0 -- -- 68
2019-09-14 13:00:00 21.3 5 Noroeste 15 Noroeste 0 -- -- 72
2019-09-14 12:00:00 20 5 Noroeste 16 Norte 0 -- -- 72
2019-09-14 11:00:00 18.8 9 Norte 17 Norte 0 -- -- 75
2019-09-14 10:00:00 17.1 8 Norte 12 Norte 0 -- -- 83
2019-09-14 09:00:00 15.6 0 Calma 8 Norte 0 -- -- 94
2019-09-14 08:00:00 15.7 3 Norte 6 Nordeste 0 -- -- 95
2019-09-14 07:00:00 15.1 2 Norte 9 Este 0 -- -- 90
2019-09-14 06:00:00 15.1 0 Calma 5 Sudeste 0 -- -- 90
2019-09-14 05:00:00 15.7 0 Calma 9 Sudeste 0 -- -- 84
2019-09-14 04:00:00 16 5 Este 13 Nordeste 0 -- -- 87
2019-09-14 03:00:00 16.1 3 Sudeste 9 Nordeste 0 -- -- 89
2019-09-14 02:00:00 16.2 3 Norte 9 Noroeste 0 -- -- 89
2019-09-14 01:00:00 16.5 2 Nordeste 8 Sur 0 -- -- 88
2019-09-14 00:00:00 16.9 0 Calma 9 Norte 0 -- -- 84
2019-09-13 23:00:00 17.2 3 Noroeste 10 Nordeste 0 -- -- 83
2019-09-13 22:00:00 17.5 5 Noroeste 10 Norte 0 -- -- 78
2019-09-13 21:00:00 18.2 0 Calma 9 Oeste 0 -- -- 81
2019-09-13 20:00:00 20 3 Nordeste 16 Noroeste 0 -- -- 75
2019-09-13 19:00:00 20.8 11 Noroeste 20 Noroeste 0 -- -- 72
2019-09-13 18:00:00 21.8 10 Noroeste 20 Noroeste 0 -- -- 68
2019-09-13 17:00:00 21.7 6 Sur 20 Sudoeste 0 -- -- 69
2019-09-13 16:00:00 22.6 6 Oeste 21 Noroeste 0 -- -- 66
2019-09-13 15:00:00 22.6 9 Noroeste 20 Norte 0 -- -- 68
2019-09-13 14:00:00 22.2 8 Norte 17 Noroeste 0 -- -- 70
2019-09-13 13:00:00 21.2 7 Oeste 17 Sudoeste 0 -- -- 67
2019-09-13 12:00:00 21.2 5 Oeste 18 Sudoeste 0 -- -- 67
2019-09-13 11:00:00 20.6 4 Noroeste 9 Noroeste 0 -- -- 65
2019-09-13 10:00:00 19.1 0 Calma 10 Sudoeste 0 -- -- 59
2019-09-13 09:00:00 17.3 5 Oeste 10 Noroeste 0 -- -- 64
2019-09-13 08:00:00 16.6 2 Sur 13 Sudeste 0 -- -- 66
2019-09-13 07:00:00 17 4 Sur 8 Sur 0 -- -- 64
2019-09-13 06:00:00 16.7 3 Sur 11 Sudeste 0 -- -- 66
2019-09-13 05:00:00 17.1 4 Oeste 10 Nordeste 0 -- -- 63
2019-09-13 04:00:00 16.5 3 Sudeste 9 Sur 0 -- -- 66
2019-09-13 03:00:00 16 2 Norte 9 Sudeste 0 -- -- 80
2019-09-13 02:00:00 16 0 Calma 8 Norte 0 -- -- 74
2019-09-13 01:00:00 16.1 2 Sudeste 11 Sudeste 0 -- -- 86
2019-09-13 00:00:00 16 3 Sudeste 10 Este 0 -- -- 92
2019-09-12 23:00:00 16.5 5 Sudeste 10 Sur 0 -- -- 89
2019-09-12 22:00:00 16.8 0 Calma 12 Norte 0 -- -- 84
2019-09-12 21:00:00 17.3 3 Norte 10 Sudeste 0 -- -- 86
2019-09-12 20:00:00 19.2 3 Sudeste 17 Sudoeste 0 -- -- 78
2019-09-12 19:00:00 19.5 5 Sudoeste 21 Noroeste 0 -- -- 78
2019-09-12 18:00:00 20.2 12 Norte 22 Norte 0 -- -- 74
2019-09-12 17:00:00 21 13 Noroeste 21 Noroeste 0 -- -- 68
2019-09-12 16:00:00 24.5 6 Nordeste 21 Nordeste 0 -- -- 55
2019-09-12 15:00:00 23.2 5 Nordeste 21 Nordeste 0 -- -- 62
2019-09-12 14:00:00 19.1 14 Norte 38 Norte 0 -- -- 79
2019-09-12 13:00:00 18.7 26 Norte 36 Noroeste 0 -- -- 80
2019-09-12 12:00:00 20.6 5 Norte 21 Sudoeste 0 -- -- 68
2019-09-12 11:00:00 18.9 7 Noroeste 30 Oeste 0 -- -- 75
2019-09-12 10:00:00 17 3 Noroeste 19 Norte 0 -- -- 86
2019-09-12 09:00:00 15.7 7 Norte 13 Norte 0 -- -- 87
2019-09-12 08:00:00 15.3 6 Norte 18 Norte 0 -- -- 91
2019-09-12 07:00:00 15.4 7 Norte 16 Norte 0 -- -- 92
2019-09-12 06:00:00 15.4 3 Nordeste 11 Nordeste 0 -- -- 91
2019-09-12 05:00:00 15.6 5 Noroeste 14 Noroeste 0 -- -- 93
2019-09-12 04:00:00 15.8 3 Nordeste 10 Norte 0 -- -- 91
2019-09-12 03:00:00 15.9 3 Nordeste 13 Sur 0 -- -- 90
2019-09-12 02:00:00 16 4 Norte 14 Sudoeste 0 -- -- 90
2019-09-12 01:00:00 16.5 0 Calma 28 Norte 0 -- -- 90
2019-09-12 00:00:00 16.5 17 Norte 23 Norte 0 -- -- 93
2019-09-11 23:00:00 17 4 Nordeste 14 Nordeste 0 -- -- 89
2019-09-11 22:00:00 17.4 6 Nordeste 17 Sudoeste 0 -- -- 91
2019-09-11 21:00:00 17.3 14 Norte 24 Norte 0 -- -- 88
2019-09-11 20:00:00 19.8 6 Este 22 Sudoeste 0 -- -- 75
2019-09-11 19:00:00 22.3 6 Noroeste 19 Sudoeste 0 -- -- 66
2019-09-11 18:00:00 21.7 7 Oeste 18 Noroeste 0 -- -- 68
2019-09-11 17:00:00 22.4 10 Noroeste 25 Sudoeste 0 -- -- 60
2019-09-11 16:00:00 21.8 9 Oeste 27 Sudoeste -- -- -- 67
2019-09-11 15:00:00 23.2 8 Noroeste 21 Oeste 0 -- -- 65
2019-09-11 14:00:00 21.6 7 Noroeste 20 Noroeste 0 -- -- 67
2019-09-11 13:00:00 21.9 7 Noroeste 18 Sur 0 -- -- 69
2019-09-11 12:00:00 22 6 Norte 15 Nordeste 0 -- -- 70
2019-09-11 11:00:00 20.1 5 Nordeste 16 Sudoeste 0 -- -- 78
2019-09-11 10:00:00 18.2 4 Norte 9 Noroeste 0 -- -- 86
2019-09-11 09:00:00 16.5 4 Nordeste 9 Oeste 0 -- -- 81
2019-09-11 08:00:00 16.2 3 Noroeste 11 Este 0 -- -- 87
2019-09-11 07:00:00 16.4 4 Norte 10 Sudeste 0 -- -- 88
2019-09-11 06:00:00 17.3 3 Nordeste 11 Norte 0 -- -- 75
2019-09-11 05:00:00 17.7 6 Norte 11 Norte 0 -- -- 72
2019-09-11 04:00:00 17.2 3 Sudeste 12 Nordeste 0 -- -- 89
2019-09-11 03:00:00 17.6 3 Sur 10 Norte 0 -- -- 88
2019-09-11 02:00:00 17.5 8 Nordeste 12 Nordeste 0 -- -- 80
2019-09-11 01:00:00 18.3 12 Norte 14 Nordeste 0 -- -- 81
2019-09-11 00:00:00 19 9 Sudeste 15 Sudeste 0 -- -- 73
2019-09-10 23:00:00 18.7 6 Sudeste 20 Sudeste 0 -- -- 86
2019-09-10 22:00:00 18.2 3 Este 12 Sudeste 0 -- -- 91
2019-09-10 21:00:00 18.6 6 Norte 10 Sudeste 0 -- -- 86
2019-09-10 20:00:00 20.8 4 Sudeste 13 Noroeste 0 -- -- 74
2019-09-10 19:00:00 24.7 8 Norte 15 Sudeste 0 -- -- 59
2019-09-10 18:00:00 23.7 7 Sudeste 14 Sur 0 -- -- 57
2019-09-10 17:00:00 26.5 6 Noroeste 18 Noroeste 0 -- -- 52
2019-09-10 16:00:00 25.5 5 Norte 15 Noroeste 0 -- -- 59
2019-09-10 15:00:00 24.5 4 Norte 14 Norte 0 -- -- 59
2019-09-10 14:00:00 23.8 7 Nordeste 13 Nordeste 0 -- -- 61
2019-09-10 13:00:00 23.1 5 Norte 13 Noroeste 0 -- -- 61
2019-09-10 12:00:00 22.8 3 Noroeste 19 Sudeste 0 -- -- 60
2019-09-10 11:00:00 21.6 6 Sudeste 18 Este 0 -- -- 66
2019-09-10 10:00:00 23.8 4 Noroeste 18 Sudeste 0 -- -- 58
2019-09-10 09:00:00 22.4 0 Calma 6 Sudeste 0 -- -- 31
2019-09-10 08:00:00 22.2 3 Sudeste 6 Nordeste 0 -- -- 31
2019-09-10 07:00:00 22.2 3 Nordeste 8 Sudeste 0 -- -- 31
2019-09-10 06:00:00 21.5 2 Norte 9 Este 0 -- -- 33
2019-09-10 05:00:00 22.3 2 Sudeste 7 Nordeste 0 -- -- 32
2019-09-10 04:00:00 22.4 6 Nordeste 13 Norte 0 -- -- 32
2019-09-10 03:00:00 21.8 4 Sur 8 Sur 0 -- -- 32
2019-09-10 02:00:00 22.3 4 Sudeste 7 Sudeste 0 -- -- 38
2019-09-10 01:00:00 22.2 0 Calma 7 Sur 0 -- -- 36
2019-09-10 00:00:00 22.3 0 Calma 8 Nordeste 0 -- -- 44
2019-09-09 23:00:00 22.6 4 Sudeste 10 Sudeste 0 -- -- 44
2019-09-09 22:00:00 22.5 3 Sur 6 Sudeste 0 -- -- 49
2019-09-09 21:00:00 22.9 4 Nordeste 6 Nordeste 0 -- -- 41
2019-09-09 20:00:00 23.4 4 Norte 13 Noroeste 0 -- -- 70
2019-09-09 19:00:00 25.7 5 Nordeste 10 Noroeste 0 -- -- 53
2019-09-09 18:00:00 23.3 4 Sudeste 13 Sudeste 0 -- -- 70
2019-09-09 17:00:00 24.9 5 Noroeste 15 Norte 0 -- -- 64
2019-09-09 16:00:00 25 7 Noroeste 21 Norte 0 -- -- 63
2019-09-09 15:00:00 26.3 8 Noroeste 18 Norte 0 -- -- 53
2019-09-09 14:00:00 25.8 8 Noroeste 15 Noroeste 0 -- -- 48
2019-09-09 13:00:00 23.3 5 Noroeste 13 Norte 0 -- -- 68
2019-09-09 12:00:00 22.2 9 Norte 16 Norte 0 -- -- 73
2019-09-09 11:00:00 20.4 7 Nordeste 18 Sur 0 -- -- 80
2019-09-09 10:00:00 19.2 4 Este 15 Sudeste 0 -- -- 82
2019-09-09 09:00:00 18.2 0 Calma 11 Nordeste 0 -- -- 79
2019-09-09 08:00:00 17.1 7 Norte 14 Norte 0 -- -- 71
2019-09-09 07:00:00 16.3 10 Norte 18 Norte 0 -- -- 87
2019-09-09 06:00:00 16.2 4 Norte 9 Norte 0 -- -- 95
2019-09-09 05:00:00 16.3 6 Norte 18 Nordeste 0 -- -- 91
2019-09-09 04:00:00 16.3 3 Nordeste 11 Nordeste 0 -- -- 93
2019-09-09 03:00:00 16.5 5 Norte 13 Norte 0 -- -- 92
2019-09-09 02:00:00 16.9 3 Norte 7 Norte 0 -- -- 91
2019-09-09 01:00:00 16.9 3 Nordeste 5 Sudoeste 0 -- -- 92
2019-09-09 00:00:00 17.2 0 Calma 6 Sudeste 0 -- -- 90
2019-09-08 23:00:00 17.5 3 Nordeste 10 Nordeste 0 -- -- 90
2019-09-08 22:00:00 17.5 2 Este 11 Sudeste 0 -- -- 88
2019-09-08 21:00:00 17.9 0 Calma 14 Norte 0 -- -- 84
2019-09-08 20:00:00 19.5 10 Norte 18 Norte 0 -- -- 76
2019-09-08 19:00:00 21.3 8 Norte 25 Noroeste 0 -- -- 69
2019-09-08 18:00:00 21 5 Sur 14 Oeste 0 -- -- 68
2019-09-08 17:00:00 21.7 5 Sudoeste 22 Oeste 0 -- -- 64
2019-09-08 16:00:00 22.7 8 Noroeste 21 Noroeste 0 -- -- 62
2019-09-08 15:00:00 22.7 6 Norte 17 Noroeste 0 -- -- 63
2019-09-08 14:00:00 22 7 Norte 18 Norte 0 -- -- 65
2019-09-08 13:00:00 20.6 6 Norte 15 Noroeste 0 -- -- 68
2019-09-08 12:00:00 20 4 Norte 14 Norte 0 -- -- 70
2019-09-08 11:00:00 18.9 3 Norte 8 Norte 0 -- -- 74
2019-09-08 10:00:00 17.7 0 Calma 12 Este 0 -- -- 77
2019-09-08 09:00:00 15.4 3 Nordeste 8 Nordeste 0 -- -- 87
2019-09-08 08:00:00 15 0 Calma 3 Nordeste 0 -- -- 89
2019-09-08 07:00:00 15.6 0 Calma 4 Sudeste 0 -- -- 86
2019-09-08 06:00:00 16 0 Calma 4 Nordeste 0 -- -- 84
2019-09-08 05:00:00 16.7 0 Calma 4 Noroeste 0 -- -- 85
2019-09-08 04:00:00 16.9 0 Calma 8 Oeste 0 -- -- 85
2019-09-08 03:00:00 17 0 Calma 7 Norte 0 -- -- 86
2019-09-08 02:00:00 16.9 0 Calma 8 Noroeste 0 -- -- 86
2019-09-08 01:00:00 17.1 3 Noroeste 8 Oeste 0 -- -- 85
2019-09-08 00:00:00 17.1 3 Oeste 10 Sur 0 -- -- 86
2019-09-07 23:00:00 17.3 3 Sudoeste 8 Sudoeste 0 -- -- 85
2019-09-07 22:00:00 17 3 Nordeste 6 Nordeste 0 -- -- 82
2019-09-07 21:00:00 17.7 2 Nordeste 7 Oeste 0 -- -- 77
2019-09-07 20:00:00 19.4 3 Nordeste 15 Oeste 0 -- -- 71
2019-09-07 19:00:00 20.8 6 Noroeste 16 Noroeste 0 -- -- 70
2019-09-07 18:00:00 21.8 7 Noroeste 23 Norte 0 -- -- 65
2019-09-07 17:00:00 20.4 13 Noroeste 33 Noroeste 0 -- -- 72
2019-09-07 16:00:00 20.6 19 Norte 35 Norte 0 -- -- 73
2019-09-07 15:00:00 20.7 20 Norte 31 Norte 0 -- -- 68
2019-09-07 14:00:00 20.3 13 Noroeste 21 Noroeste 0 -- -- 68
2019-09-07 13:00:00 20.2 4 Noroeste 17 Oeste 0 -- -- 71
2019-09-07 12:00:00 19.2 6 Noroeste 13 Noroeste 0 -- -- 79
2019-09-07 11:00:00 18 5 Noroeste 14 Noroeste 0 -- -- 82
2019-09-07 10:00:00 17.3 4 Oeste 10 Sudoeste 0 -- -- 83
2019-09-07 09:00:00 16.7 0 Calma 7 Noroeste 0 -- -- 86
2019-09-07 08:00:00 16.2 3 Sur 7 Sur 0 -- -- 87
2019-09-07 07:00:00 16.4 3 Noroeste 8 Sudoeste 0 -- -- 87
2019-09-07 06:00:00 16.7 2 Norte 6 Sudoeste 0 -- -- 89
2019-09-07 05:00:00 16.8 2 Noroeste 7 Sudoeste 0 -- -- 92
2019-09-07 04:00:00 17 2 Nordeste 7 Sudoeste 0 -- -- 93
2019-09-07 03:00:00 17.2 2 Norte 6 Sudoeste 0 -- -- 93
2019-09-07 02:00:00 17.4 2 Nordeste 7 Noroeste 0 -- -- 92
2019-09-07 01:00:00 17.6 0 Calma 9 Este 0 -- -- 92
2019-09-07 00:00:00 17.7 0 Calma 6 Oeste 0 -- -- 92
2019-09-06 23:00:00 17.7 0 Calma 5 Este 0 -- -- 92
2019-09-06 22:00:00 17.7 0 Calma 9 Sur 0 -- -- 93
2019-09-06 21:00:00 17.7 3 Oeste 11 Noroeste 0 -- -- 93
2019-09-06 20:00:00 18.2 6 Noroeste 10 Noroeste 0 -- -- 92
2019-09-06 19:00:00 18.5 4 Noroeste 10 Norte 0 -- -- 86
2019-09-06 18:00:00 19.1 4 Noroeste 14 Oeste 0 -- -- 83
2019-09-06 17:00:00 19.8 6 Noroeste 15 Noroeste 0 -- -- 81
2019-09-06 16:00:00 19.9 6 Noroeste 16 Noroeste 0 -- -- 82
2019-09-06 15:00:00 20.9 5 Norte 16 Noroeste 0 -- -- 77
2019-09-06 14:00:00 22.5 8 Noroeste 20 Noroeste 0 -- -- 63
2019-09-06 13:00:00 22.7 9 Noroeste 21 Noroeste 0 -- -- 64
2019-09-06 12:00:00 21.4 5 Norte 20 Oeste 0 -- -- 68
2019-09-06 11:00:00 20.9 5 Norte 16 Noroeste 0 -- -- 72
2019-09-06 10:00:00 18.3 3 Noroeste 10 Norte 0 -- -- 80
2019-09-06 09:00:00 16.4 3 Norte 8 Norte 0 -- -- 91
2019-09-06 08:00:00 15.6 0 Calma 5 Nordeste 0 -- -- 89
2019-09-06 07:00:00 15.5 3 Noroeste 6 Noroeste 0 -- -- 88
2019-09-06 06:00:00 15.5 0 Calma 6 Noroeste 0 -- -- 90
2019-09-06 05:00:00 15.6 0 Calma 5 Sudeste 0 -- -- 90
2019-09-06 04:00:00 16.1 3 Sudeste 9 Sur 0 -- -- 89
2019-09-06 03:00:00 16 0 Calma 7 Noroeste 0 -- -- 91
2019-09-06 02:00:00 16.5 3 Norte 6 Noroeste 0 -- -- 90
2019-09-06 01:00:00 17.1 2 Norte 5 Norte 0 -- -- 86
2019-09-06 00:00:00 17.6 0 Calma 8 Norte 0 -- -- 91
2019-09-05 23:00:00 17.7 4 Noroeste 8 Norte 0 -- -- 92
2019-09-05 22:00:00 18 4 Noroeste 10 Norte 0 -- -- 91
2019-09-05 21:00:00 18.3 5 Norte 10 Norte 0 -- -- 89
2019-09-05 20:00:00 19 3 Noroeste 12 Sudoeste 0 -- -- 86
2019-09-05 19:00:00 19.6 4 Oeste 13 Oeste 0 -- -- 81
2019-09-05 18:00:00 21.5 5 Sudoeste 15 Sudoeste 0 -- -- 69
2019-09-05 17:00:00 21.5 6 Oeste 19 Noroeste 0 -- -- 66
2019-09-05 16:00:00 22.3 7 Oeste 21 Oeste 0 -- -- 64
2019-09-05 15:00:00 23 8 Noroeste 20 Noroeste 0 -- -- 58
2019-09-05 14:00:00 22.2 10 Noroeste 20 Noroeste 0 -- -- 62
2019-09-05 13:00:00 21.6 5 Norte 14 Noroeste 0 -- -- 66
2019-09-05 12:00:00 20.7 6 Noroeste 16 Noroeste 0 -- -- 68
2019-09-05 11:00:00 19.4 4 Norte 8 Norte 0 -- -- 73
2019-09-05 10:00:00 17.7 4 Noroeste 12 Oeste 0 -- -- 79
2019-09-05 09:00:00 15.8 0 Calma 13 Sudeste 0 -- -- 88
2019-09-05 08:00:00 15.1 2 Nordeste 4 Este 0 -- -- 91
2019-09-05 07:00:00 15.3 2 Sudeste 10 Nordeste 0 -- -- 91
2019-09-05 06:00:00 14.9 0 Calma 5 Noroeste 0 -- -- 91
2019-09-05 05:00:00 15.6 2 Noroeste 5 Norte 0 -- -- 94
2019-09-05 04:00:00 15.7 0 Calma 5 Nordeste 0 -- -- 92
2019-09-05 03:00:00 15.9 2 Nordeste 8 Sudeste 0 -- -- 91
2019-09-05 02:00:00 16.6 2 Norte 6 Norte 0 -- -- 92
2019-09-05 01:00:00 16.8 0 Calma 6 Nordeste 0 -- -- 94
2019-09-05 00:00:00 17 3 Nordeste 9 Oeste 0 -- -- 93
2019-09-04 23:00:00 17.1 2 Nordeste 5 Noroeste 0 -- -- 92
2019-09-04 22:00:00 17.4 3 Norte 8 Noroeste 0 -- -- 89
2019-09-04 21:00:00 17.6 3 Noroeste 11 Sudoeste 0 -- -- 89
2019-09-04 20:00:00 18.4 3 Sur 12 Sudoeste 0 -- -- 85
2019-09-04 19:00:00 19.2 4 Norte 12 Noroeste 0 -- -- 81
2019-09-04 18:00:00 19 5 Noroeste 11 Noroeste 0 -- -- 79
2019-09-04 17:00:00 18.5 3 Noroeste 10 Sudoeste 0 -- -- 83
2019-09-04 16:00:00 18.6 4 Norte 15 Oeste 0 -- -- 82
2019-09-04 15:00:00 19 4 Oeste 12 Noroeste 0 -- -- 80
2019-09-04 14:00:00 19.2 5 Noroeste 18 Oeste 0 -- -- 76
2019-09-04 13:00:00 19.2 5 Norte 17 Noroeste 0 -- -- 78
2019-09-04 12:00:00 20.6 5 Norte 16 Noroeste 0 -- -- 67
2019-09-04 11:00:00 19.6 4 Noroeste 9 Noroeste 0 -- -- 69
2019-09-04 10:00:00 17.7 4 Noroeste 10 Nordeste 0 -- -- 73
2019-09-04 09:00:00 15.6 2 Nordeste 5 Este 0 -- -- 85
2019-09-04 08:00:00 15.2 3 Noroeste 5 Oeste 0 -- -- 85
2019-09-04 07:00:00 15.5 0 Calma 5 Sur 0 -- -- 84
2019-09-04 06:00:00 15.1 0 Calma 4 Noroeste 0 -- -- 85
2019-09-04 05:00:00 15.1 0 Calma 3 Nordeste 0 -- -- 82
2019-09-04 04:00:00 15.2 0 Calma 4 Nordeste 0 -- -- 83
2019-09-04 03:00:00 15.4 0 Calma 4 Este 0 -- -- 83
2019-09-04 02:00:00 16 0 Calma 4 Sudoeste 0 -- -- 87
2019-09-04 01:00:00 16.1 0 Calma 8 Nordeste 0 -- -- 86
2019-09-04 00:00:00 16.4 2 Noroeste 9 Sudeste 0 -- -- 89
2019-09-03 23:00:00 16.6 0 Calma 8 Sudeste 0 -- -- 88
2019-09-03 22:00:00 17.1 0 Calma 12 Este 0 -- -- 87
2019-09-03 21:00:00 18.4 0 Calma 15 Noroeste 0 -- -- 81
2019-09-03 20:00:00 19.5 3 Norte 10 Norte 0 -- -- 78
2019-09-03 19:00:00 20.6 4 Noroeste 18 Sur 0 -- -- 73
2019-09-03 18:00:00 20.9 4 Noroeste 19 Sudoeste 0 -- -- 71
2019-09-03 17:00:00 21.6 6 Noroeste 21 Sudoeste 0 -- -- 66
2019-09-03 16:00:00 20.3 5 Sudoeste 20 Sudoeste 0 -- -- 73
2019-09-03 15:00:00 21.4 6 Noroeste 23 Sudoeste 0 -- -- 71
2019-09-03 14:00:00 21.2 9 Oeste 23 Sudoeste 0 -- -- 69
2019-09-03 13:00:00 19.3 6 Noroeste 17 Noroeste 0 -- -- 74
2019-09-03 12:00:00 18.4 6 Noroeste 11 Noroeste 0 -- -- 77
2019-09-03 11:00:00 18.8 5 Noroeste 12 Noroeste 0 -- -- 78
2019-09-03 10:00:00 17.3 0 Calma 8 Este 0 -- -- 73
2019-09-03 09:00:00 15.3 3 Norte 7 Noroeste 0 -- -- 95
2019-09-03 08:00:00 14.6 2 Nordeste 5 Norte 0 -- -- 94
2019-09-03 07:00:00 14.6 2 Noroeste 5 Noroeste 0 -- -- 91
2019-09-03 06:00:00 15 0 Calma 4 Norte 0 -- -- 90
2019-09-03 05:00:00 15.3 2 Sur 5 Sur 0 -- -- 91
2019-09-03 04:00:00 15.4 2 Este 7 Sudeste 0 -- -- 90
2019-09-03 03:00:00 15.6 2 Norte 9 Sudeste 0 -- -- 91
2019-09-03 02:00:00 15.6 0 Calma 4 Nordeste 0 -- -- 90
2019-09-03 01:00:00 16.1 0 Calma 4 Sudeste 0 -- -- 88
2019-09-03 00:00:00 16.3 3 Norte 5 Norte 0 -- -- 88
2019-09-02 23:00:00 16.7 3 Norte 5 Este 0 -- -- 86
2019-09-02 22:00:00 17.1 2 Norte 5 Nordeste 0 -- -- 83
2019-09-02 21:00:00 18.1 0 Calma 9 Sudoeste 0 -- -- 79
2019-09-02 20:00:00 20.3 6 Oeste 17 Noroeste 0 -- -- 70
2019-09-02 19:00:00 21.6 8 Noroeste 19 Noroeste 0 -- -- 61
2019-09-02 18:00:00 22.1 10 Noroeste 21 Norte 0 -- -- 57
2019-09-02 17:00:00 22.7 10 Noroeste 22 Noroeste 0 -- -- 56
2019-09-02 16:00:00 22.7 9 Norte 19 Oeste 0 -- -- 57
2019-09-02 15:00:00 20.8 6 Noroeste 18 Noroeste 0 -- -- 66
2019-09-02 14:00:00 19.9 9 Noroeste 22 Noroeste 0 -- -- 70
2019-09-02 13:00:00 19.5 12 Noroeste 20 Noroeste 0 -- -- 71
2019-09-02 12:00:00 19.5 8 Noroeste 19 Noroeste 0 -- -- 70
2019-09-02 11:00:00 19.1 4 Noroeste 11 Noroeste 0 -- -- 72
2019-09-02 10:00:00 18.3 5 Noroeste 15 Noroeste 0 -- -- 76
2019-09-02 09:00:00 16.3 5 Noroeste 12 Norte 0 -- -- 77
2019-09-02 08:00:00 14.8 3 Norte 7 Norte 0 -- -- 92
2019-09-02 07:00:00 15.6 2 Sudeste 7 Este 0 -- -- 78
2019-09-02 06:00:00 15.3 2 Norte 10 Nordeste 0 -- -- 85
2019-09-02 05:00:00 15.5 4 Norte 15 Norte 0 -- -- 92
2019-09-02 04:00:00 15.8 9 Norte 18 Norte 0 -- -- 87
2019-09-02 03:00:00 16.1 2 Nordeste 5 Sudoeste 0 -- -- 94
2019-09-02 02:00:00 16.4 0 Calma 4 Sur 0 -- -- 90
2019-09-02 01:00:00 16.9 0 Calma 10 Sur 0 -- -- 88
2019-09-02 00:00:00 16.8 4 Sur 19 Sudeste 0 -- -- 92
2019-09-01 23:00:00 17.4 3 Nordeste 10 Norte 0 -- -- 90
2019-09-01 22:00:00 17.3 8 Norte 18 Norte 0 -- -- 92
2019-09-01 21:00:00 18.4 9 Norte 12 Este 0 -- -- 81
2019-09-01 20:00:00 21.7 3 Este 14 Sudoeste 0 -- -- 68
2019-09-01 19:00:00 22.7 4 Nordeste 18 Oeste 0 -- -- 66
2019-09-01 18:00:00 20.5 11 Noroeste 39 Norte 0 -- -- 72
2019-09-01 17:00:00 20.5 26 Norte 42 Norte 0 -- -- 71
2019-09-01 16:00:00 21.2 18 Norte 27 Norte 0 -- -- 67
2019-09-01 15:00:00 22.1 8 Sudoeste 24 Sur 0 -- -- 65
2019-09-01 14:00:00 23.6 7 Norte 26 Sudeste 0 -- -- 61
2019-09-01 13:00:00 20 14 Norte 42 Norte 0 -- -- 72
2019-09-01 12:00:00 20 26 Norte 35 Norte 0 -- -- 74
2019-09-01 11:00:00 22 8 Norte 19 Nordeste 0 -- -- 61
2019-09-01 10:00:00 20.1 7 Norte 19 Sudeste 0 -- -- 61
2019-09-01 09:00:00 18.4 6 Norte 18 Norte 0 -- -- 72
2019-09-01 08:00:00 20.6 14 Nordeste 17 Nordeste 0 -- -- 39
2019-09-01 07:00:00 20.3 6 Sur 17 Sudeste 0 -- -- 47
2019-09-01 06:00:00 21.8 5 Sur 22 Nordeste 0 -- -- 28
2019-09-01 05:00:00 21.9 16 Norte 21 Norte 0 -- -- 28
2019-09-01 04:00:00 22.4 6 Norte 15 Sur 0 -- -- 39
2019-09-01 03:00:00 23.9 4 Oeste 18 Norte 0 -- -- 28
2019-09-01 02:00:00 24.3 10 Norte 15 Norte 0 -- -- 23
2019-09-01 01:00:00 24.6 4 Norte 13 Sudeste 0 -- -- 25
2019-09-01 00:00:00 24.9 5 Sudeste 17 Norte 0 -- -- 24
2019-08-31 23:00:00 23.3 5 Nordeste 10 Noroeste 0 -- -- 32
2019-08-31 22:00:00 23 7 Sudeste 25 Sudeste 0 -- -- 30
2019-08-31 21:00:00 19.7 9 Norte 27 Sudeste 0 -- -- 79
2019-08-31 20:00:00 21.8 6 Norte 27 Norte 0 -- -- 72
2019-08-31 19:00:00 24.3 13 Norte 19 Norte 0 -- -- 63
2019-08-31 18:00:00 23.5 7 Sur 18 Sudeste 0 -- -- 62
2019-08-31 17:00:00 24.7 6 Nordeste 21 Sudeste 0 -- -- 62
2019-08-31 16:00:00 23.4 7 Norte 22 Norte 0 -- -- 68
2019-08-31 15:00:00 26.2 10 Norte 15 Norte 0 -- -- 61
2019-08-31 14:00:00 25.4 6 Sudeste 17 Sudeste 0 -- -- 49
2019-08-31 13:00:00 24.4 5 Sur 15 Sudeste 0 -- -- 67
2019-08-31 12:00:00 23.8 4 Norte 10 Sudeste 0 -- -- 68
2019-08-31 11:00:00 24 2 Sudeste 12 Sudeste 0 -- -- 60
2019-08-31 10:00:00 26.4 0 Calma 13 Este 0 -- -- 28
2019-08-31 09:00:00 23.9 9 Sudeste 12 Sudeste 0 -- -- 29
2019-08-31 08:00:00 20.5 6 Norte 10 Sudeste 0 -- -- 60
2019-08-31 07:00:00 23.3 3 Este 10 Sudeste 0 -- -- 26
2019-08-31 06:00:00 22.8 7 Sudeste 10 Sudeste 0 -- -- 29
2019-08-31 05:00:00 22.9 3 Sudeste 5 Sudeste 0 -- -- 27
2019-08-31 04:00:00 23.3 2 Norte 11 Sudeste 0 -- -- 45
2019-08-31 03:00:00 23.4 2 Este 8 Sudeste 0 -- -- 29
2019-08-31 02:00:00 24.1 7 Sudeste 11 Sudeste 0 -- -- 33
2019-08-31 01:00:00 24.6 3 Este 4 Este 0 -- -- 32
2019-08-31 00:00:00 24.3 4 Nordeste 6 Norte 0 -- -- 24
2019-08-30 23:00:00 24.5 4 Norte 8 Este 0 -- -- 26
2019-08-30 22:00:00 25 4 Noroeste 10 Este 0 -- -- 42
2019-08-30 21:00:00 26.1 3 Sur 9 Sudeste 0 -- -- 24
2019-08-30 20:00:00 27.9 3 Sudeste 9 Sudeste 0 -- -- 21
2019-08-30 19:00:00 27.9 4 Este 12 Norte 0 -- -- 43
2019-08-30 18:00:00 28.5 6 Norte 15 Noroeste 0 -- -- 47
2019-08-30 17:00:00 29.1 10 Norte 17 Norte 0 -- -- 35
2019-08-30 16:00:00 29.3 11 Norte 18 Noroeste 0 -- -- 23
2019-08-30 15:00:00 28.4 10 Norte 17 Norte 0 -- -- 29
2019-08-30 14:00:00 26.3 4 Norte 21 Sur 0 -- -- 52
2019-08-30 13:00:00 24.5 7 Nordeste 24 Este 0 -- -- 61
2019-08-30 12:00:00 23.3 5 Norte 20 Norte 0 -- -- 67
2019-08-30 11:00:00 19.2 20 Norte 35 Norte 0 -- -- 86
2019-08-30 10:00:00 18.8 20 Norte 25 Norte 0 -- -- 84
2019-08-30 09:00:00 18.1 0 Calma 12 Sur 0 -- -- 78
2019-08-30 08:00:00 18.4 6 Sur 19 Sudeste 0 -- -- 71
2019-08-30 07:00:00 18.9 5 Oeste 16 Sudeste 0 -- -- 74
2019-08-30 06:00:00 24.4 2 Sudeste 6 Sur 0 -- -- 28
2019-08-30 05:00:00 24.8 0 Calma 9 Nordeste 0 -- -- 27
2019-08-30 04:00:00 24.9 7 Nordeste 9 Nordeste 0 -- -- 25
2019-08-30 03:00:00 24.7 3 Sudeste 14 Este 0 -- -- 26
2019-08-30 02:00:00 24.6 3 Oeste 12 Sudeste 0 -- -- 34
2019-08-30 01:00:00 24.9 3 Sur 10 Sudeste 0 -- -- 36
2019-08-30 00:00:00 25.8 3 Nordeste 9 Nordeste 0 -- -- 28
2019-08-29 23:00:00 26.1 8 Nordeste 11 Nordeste 0 -- -- 22
2019-08-29 22:00:00 26.5 8 Nordeste 13 Nordeste 0 -- -- 22
2019-08-29 21:00:00 26.2 9 Nordeste 14 Norte 0 -- -- 25
2019-08-29 20:00:00 26.8 7 Norte 13 Norte 0 -- -- 36
2019-08-29 19:00:00 27.1 8 Norte 16 Noroeste 0 -- -- 55
2019-08-29 18:00:00 25.6 5 Sudeste 17 Norte 0 -- -- 58
2019-08-29 17:00:00 23.7 4 Sudeste 14 Sur 0 -- -- 66
2019-08-29 16:00:00 26.7 8 Noroeste 13 Noroeste 0 -- -- 54
2019-08-29 15:00:00 25.2 5 Nordeste 10 Noroeste 0 -- -- 57
2019-08-29 14:00:00 25.3 5 Nordeste 15 Sur 0 -- -- 60
2019-08-29 13:00:00 23.3 8 Sur 20 Sudeste 0 -- -- 63
2019-08-29 12:00:00 23.1 6 Oeste 17 Sudoeste 0 -- -- 65
2019-08-29 11:00:00 23.5 3 Nordeste 9 Sur 0 -- -- 63
2019-08-29 10:00:00 23.1 5 Norte 15 Norte 0 -- -- 42
2019-08-29 09:00:00 21.2 5 Norte 13 Sur 0 -- -- 41
2019-08-29 08:00:00 19.3 5 Noroeste 13 Noroeste 0 -- -- 55
2019-08-29 07:00:00 20.7 4 Nordeste 10 Nordeste 0 -- -- 41
2019-08-29 06:00:00 19.7 6 Nordeste 8 Norte 0 -- -- 43
2019-08-29 05:00:00 18.7 5 Este 13 Sur 0 -- -- 72
2019-08-29 04:00:00 17.8 5 Noroeste 13 Noroeste 0 -- -- 83
2019-08-29 03:00:00 18.5 3 Noroeste 10 Sudeste 0 -- -- 72
2019-08-29 02:00:00 17.6 8 Norte 12 Norte 0 -- -- 88
2019-08-29 01:00:00 17.5 6 Norte 15 Este 0 -- -- 89
2019-08-29 00:00:00 18.1 4 Este 14 Sudeste 0 -- -- 89
2019-08-28 23:00:00 18 4 Noroeste 14 Sur 0 -- -- 91
2019-08-28 22:00:00 18.4 0 Calma 8 Norte 0 -- -- 89
2019-08-28 21:00:00 18.3 6 Norte 12 Norte 0 -- -- 91
2019-08-28 20:00:00 21.4 7 Norte 13 Noroeste 0 -- -- 74
2019-08-28 19:00:00 22.8 5 Norte 14 Norte 0 -- -- 62
2019-08-28 18:00:00 21.5 5 Sur 19 Sudeste 0 -- -- 68
2019-08-28 17:00:00 23.5 5 Norte 19 Sudeste 0 -- -- 61
2019-08-28 16:00:00 24.5 5 Noroeste 15 Noroeste 0 -- -- 64
2019-08-28 15:00:00 21.5 12 Norte 22 Noroeste 0 -- -- 76
2019-08-28 14:00:00 22.8 6 Norte 21 Sudoeste 0 -- -- 70
2019-08-28 13:00:00 21.5 9 Noroeste 26 Sudoeste 0 -- -- 73
2019-08-28 12:00:00 22.5 6 Noroeste 20 Este 0 -- -- 65
2019-08-28 11:00:00 21.8 3 Norte 8 Norte 0 -- -- 71
2019-08-28 10:00:00 19.6 4 Nordeste 15 Nordeste 0 -- -- 80
2019-08-28 09:00:00 18.8 5 Norte 9 Norte 0 -- -- 82
2019-08-28 08:00:00 20.4 7 Sudeste 9 Sudeste 0 -- -- 46
2019-08-28 07:00:00 23 4 Norte 8 Sudeste 0 -- -- 29
2019-08-28 06:00:00 23.2 6 Sudeste 12 Sudeste 0 -- -- 36
2019-08-28 05:00:00 23 4 Sudeste 8 Nordeste 0 -- -- 34
2019-08-28 04:00:00 21.8 4 Norte 8 Nordeste 0 -- -- 37
2019-08-28 03:00:00 21.7 5 Norte 8 Norte 0 -- -- 36
2019-08-28 02:00:00 21.5 4 Norte 10 Sudeste 0 -- -- 41
2019-08-28 01:00:00 19.9 3 Sur 10 Nordeste 0 -- -- 66
2019-08-28 00:00:00 20.1 10 Norte 16 Norte 0 -- -- 52
2019-08-27 23:00:00 20.6 3 Este 16 Sudeste 0 -- -- 66
2019-08-27 22:00:00 21.5 7 Este 16 Sudeste 0 -- -- 71
2019-08-27 21:00:00 19.5 4 Sur 11 Sudeste 0 -- -- 85
2019-08-27 20:00:00 20.7 9 Norte 18 Norte 0 -- -- 81
2019-08-27 19:00:00 22.9 9 Norte 16 Noroeste 0 -- -- 68
2019-08-27 18:00:00 25.5 8 Norte 14 Noroeste 0 -- -- 60
2019-08-27 17:00:00 25.9 4 Sur 10 Sudeste 0 -- -- 44
2019-08-27 16:00:00 25 5 Sur 14 Sudoeste 0 -- -- 62
2019-08-27 15:00:00 25.2 4 Norte 10 Noroeste 0 -- -- 63
2019-08-27 14:00:00 25 6 Norte 12 Norte 0 -- -- 66
2019-08-27 13:00:00 24.6 3 Noroeste 10 Este 0 -- -- 67
2019-08-27 12:00:00 23 5 Sudoeste 14 Sudeste 0 -- -- 72
2019-08-27 11:00:00 23.7 5 Sudeste 14 Sur 0 -- -- 66
2019-08-27 10:00:00 25.9 6 Nordeste 9 Nordeste 0 -- -- 38
2019-08-27 09:00:00 24.6 0 Calma 9 Sudeste 0 -- -- 30
2019-08-27 08:00:00 23.7 6 Sudeste 10 Sudeste 0 -- -- 35
2019-08-27 07:00:00 22.3 2 Noroeste 13 Sudeste 0 -- -- 39
2019-08-27 06:00:00 22.2 5 Sur 11 Sur 0 -- -- 37
2019-08-27 05:00:00 21.8 4 Noroeste 10 Este 0 -- -- 44
2019-08-27 04:00:00 21.7 5 Sudeste 8 Sudeste 0 -- -- 51
2019-08-27 03:00:00 23.1 2 Nordeste 6 Norte 0 -- -- 36
2019-08-27 02:00:00 23.3 5 Norte 9 Nordeste 0 -- -- 36
2019-08-27 01:00:00 23 5 Nordeste 7 Norte 0 -- -- 43
2019-08-27 00:00:00 22.8 5 Nordeste 14 Nordeste 0 -- -- 47
2019-08-26 23:00:00 22.9 8 Norte 14 Nordeste 0 -- -- 58
2019-08-26 22:00:00 23.9 4 Norte 9 Noroeste 0 -- -- 57
2019-08-26 21:00:00 23.4 3 Nordeste 14 Sudeste 0 -- -- 46
2019-08-26 20:00:00 23.1 6 Este 22 Sudeste 0 -- -- 69
2019-08-26 19:00:00 24.4 9 Sudeste 15 Sudeste 0 -- -- 69
2019-08-26 18:00:00 24.1 5 Sudeste 13 Noroeste 0 -- -- 72
2019-08-26 17:00:00 28 7 Norte 15 Noroeste 0 -- -- 59
2019-08-26 16:00:00 29.3 9 Norte 20 Noroeste 0 -- -- 42
2019-08-26 15:00:00 30.1 9 Norte 27 Noroeste 0 -- -- 28
2019-08-26 14:00:00 30.5 17 Norte 24 Norte 0 -- -- 32
2019-08-26 13:00:00 30.7 12 Norte 17 Noroeste 0 -- -- 26
2019-08-26 12:00:00 30.7 7 Norte 21 Norte 0 -- -- 32
2019-08-26 11:00:00 28.8 14 Norte 18 Norte 0 -- -- 35
2019-08-26 10:00:00 27.3 5 Norte 9 Norte 0 -- -- 36
2019-08-26 09:00:00 25.8 4 Este 12 Sudeste 0 -- -- 28
2019-08-26 08:00:00 25.3 3 Noroeste 13 Norte 0 -- -- 27
2019-08-26 07:00:00 24.7 6 Nordeste 12 Sudeste 0 -- -- 25
2019-08-26 06:00:00 24.1 4 Norte 17 Norte 0 -- -- 33
2019-08-26 05:00:00 24.5 7 Norte 16 Norte 0 -- -- 31
2019-08-26 04:00:00 25.9 6 Sur 16 Sur 0 -- -- 28
2019-08-26 03:00:00 26.8 4 Este 11 Sur 0 -- -- 26
2019-08-26 02:00:00 27.5 4 Norte 8 Norte 0 -- -- 24
2019-08-26 01:00:00 27.5 3 Este 14 Norte 0 -- -- 28
2019-08-26 00:00:00 27.4 4 Norte 9 Norte 0 -- -- 30
2019-08-25 23:00:00 27.8 6 Norte 12 Norte 0 -- -- 31
2019-08-25 22:00:00 27.7 10 Norte 12 Norte 0 -- -- 30
2019-08-25 21:00:00 28.5 3 Nordeste 10 Noroeste 0 -- -- 33
2019-08-25 20:00:00 30.7 5 Norte 18 Sudeste 0 -- -- 37
2019-08-25 19:00:00 32.6 5 Nordeste 18 Sudeste 0 -- -- 30
2019-08-25 18:00:00 31.3 6 Norte 17 Noroeste 0 -- -- 37
2019-08-25 17:00:00 31.1 10 Norte 17 Norte 0 -- -- 40
2019-08-25 16:00:00 34.9 4 Norte 12 Oeste 0 -- -- 32
2019-08-25 15:00:00 33.9 5 Sudeste 21 Sudeste 0 -- -- 28
2019-08-25 14:00:00 34 6 Nordeste 31 Sudeste 0 -- -- 30
2019-08-25 13:00:00 33.8 10 Este 25 Sudeste 0 -- -- 26
2019-08-25 12:00:00 34.2 6 Norte 14 Noroeste 0 -- -- 27
2019-08-25 11:00:00 32.4 6 Norte 17 Norte 0 -- -- 16
2019-08-25 10:00:00 30.8 3 Norte 15 Sudeste 0 -- -- 15
2019-08-25 09:00:00 29.9 4 Norte 19 Este 0 -- -- 20
2019-08-25 08:00:00 25.2 5 Norte 20 Sur 0 -- -- 29
2019-08-25 07:00:00 29.8 6 Norte 18 Este 0 -- -- 16
2019-08-25 06:00:00 30.4 4 Nordeste 13 Sudeste 0 -- -- 16
2019-08-25 05:00:00 31.7 5 Noroeste 15 Nordeste 0 -- -- 18
2019-08-25 04:00:00 30.7 8 Norte 19 Nordeste 0 -- -- 20
2019-08-25 03:00:00 29.5 10 Norte 25 Nordeste 0 -- -- 22
2019-08-25 02:00:00 31.8 6 Este 18 Nordeste 0 -- -- 18
2019-08-25 01:00:00 33.3 9 Nordeste 19 Nordeste 0 -- -- 17
2019-08-25 00:00:00 32.8 7 Este 20 Sudeste 0 -- -- 17
2019-08-24 23:00:00 30.4 3 Noroeste 9 Norte 0 -- -- 23
2019-08-24 22:00:00 29.4 3 Este 10 Norte 0 -- -- 28
2019-08-24 21:00:00 29.5 9 Norte 12 Norte 0 -- -- 28
2019-08-24 20:00:00 32.2 2 Noroeste 12 Sudeste 0 -- -- 27
2019-08-24 19:00:00 33.1 4 Sudeste 20 Sudeste 0 -- -- 22
2019-08-24 18:00:00 33 5 Este 20 Sudeste 0 -- -- 23
2019-08-24 17:00:00 31.6 6 Sudeste 13 Sudeste 0 -- -- 41
2019-08-24 16:00:00 32.7 6 Norte 17 Norte 0 -- -- 31
2019-08-24 15:00:00 33.9 8 Norte 14 Norte 0 -- -- 25
2019-08-24 14:00:00 35 5 Norte 16 Este 0 -- -- 38
2019-08-24 13:00:00 33.7 5 Norte 18 Este 0 -- -- 24
2019-08-24 12:00:00 33.1 3 Norte 10 Norte 0 -- -- 20
2019-08-24 11:00:00 32.5 7 Norte 16 Sudeste 0 -- -- 21
2019-08-24 10:00:00 30.1 5 Norte 19 Sudeste 0 -- -- 19
2019-08-24 09:00:00 29.5 10 Sudeste 31 Sudeste 0 -- -- 26
2019-08-24 08:00:00 25.7 5 Sudeste 14 Sudeste 0 -- -- 24
2019-08-24 07:00:00 26.2 4 Norte 16 Norte 0 -- -- 24
2019-08-24 06:00:00 23.4 15 Norte 20 Norte 0 -- -- 30
2019-08-24 05:00:00 27 3 Sudeste 14 Norte 0 -- -- 32
2019-08-24 04:00:00 28 4 Nordeste 13 Noroeste 0 -- -- 20
2019-08-24 03:00:00 27.9 6 Noroeste 17 Norte 0 -- -- 21
2019-08-24 02:00:00 28.5 0 Calma 9 Norte 0 -- -- 19
2019-08-24 01:00:00 28.8 7 Nordeste 18 Sudeste 0 -- -- 19
2019-08-24 00:00:00 27 5 Sur 14 Sur 0 -- -- 30
2019-08-23 23:00:00 27.5 3 Norte 10 Norte 0 -- -- 23
2019-08-23 22:00:00 26.4 8 Norte 11 Nordeste 0 -- -- 31
2019-08-23 21:00:00 26.4 0 Calma 6 Noroeste 0 -- -- 48
2019-08-23 20:00:00 28.2 5 Este 17 Sudeste 0 -- -- 45
2019-08-23 19:00:00 28.7 5 Sudeste 19 Sudeste 0 -- -- 31
2019-08-23 18:00:00 30.4 4 Este 13 Sudeste 0 -- -- 31
2019-08-23 17:00:00 30 4 Sudeste 12 Este 0 -- -- 42
2019-08-23 16:00:00 28.3 8 Sudeste 14 Sudeste 0 -- -- 50
2019-08-23 15:00:00 28.2 4 Sudeste 15 Noroeste 0 -- -- 46
2019-08-23 14:00:00 29.1 9 Norte 13 Norte 0 -- -- 31
2019-08-23 13:00:00 25.8 4 Norte 20 Norte 0 -- -- 58
2019-08-23 12:00:00 21.9 11 Norte 17 Norte 0 -- -- 71
2019-08-23 11:00:00 23.4 8 Norte 19 Sur 0 -- -- 65
2019-08-23 10:00:00 25.7 5 Nordeste 12 Nordeste 0 -- -- 42
2019-08-23 09:00:00 24.2 8 Noroeste 28 Sudeste 0 -- -- 31
2019-08-23 08:00:00 20.9 7 Este 24 Norte 0 -- -- 41
2019-08-23 07:00:00 23.4 13 Nordeste 18 Nordeste 0 -- -- 33
2019-08-23 06:00:00 24 4 Sudoeste 25 Sudeste 0 -- -- 35
2019-08-23 05:00:00 23.9 6 Sur 16 Sudeste 0 -- -- 36
2019-08-23 04:00:00 24.3 3 Nordeste 11 Sudeste 0 -- -- 37
2019-08-23 03:00:00 23.4 7 Nordeste 15 Noroeste 0 -- -- 36
2019-08-23 02:00:00 25.2 3 Sur 17 Sudeste 0 -- -- 36
2019-08-23 01:00:00 23.7 14 Sudeste 21 Sudeste 0 -- -- 44
2019-08-23 00:00:00 24.2 8 Norte 20 Nordeste 0 -- -- 36